sensor_id;sensor_type;location;lat;lon;timestamp;P1;durP1;ratioP1;P2;durP2;ratioP2
49776;SDS011;35673;51.482;7.436;2022-10-22T00:01:32;5.53;;;2.42;;
49776;SDS011;35673;51.482;7.436;2022-10-22T00:03:58;5.30;;;2.47;;
49776;SDS011;35673;51.482;7.436;2022-10-22T00:06:23;6.32;;;2.25;;
49776;SDS011;35673;51.482;7.436;2022-10-22T00:08:49;5.22;;;2.92;;
49776;SDS011;35673;51.482;7.436;2022-10-22T00:11:17;4.50;;;1.98;;
49776;SDS011;35673;51.482;7.436;2022-10-22T00:13:44;4.63;;;2.15;;
49776;SDS011;35673;51.482;7.436;2022-10-22T00:16:10;7.25;;;2.33;;
49776;SDS011;35673;51.482;7.436;2022-10-22T00:18:36;8.18;;;2.20;;
49776;SDS011;35673;51.482;7.436;2022-10-22T00:21:02;6.30;;;2.22;;
49776;SDS011;35673;51.482;7.436;2022-10-22T00:23:28;5.47;;;2.15;;
49776;SDS011;35673;51.482;7.436;2022-10-22T00:25:53;4.43;;;2.10;;
49776;SDS011;35673;51.482;7.436;2022-10-22T00:28:19;3.33;;;1.75;;
49776;SDS011;35673;51.482;7.436;2022-10-22T00:30:45;9.73;;;2.55;;
49776;SDS011;35673;51.482;7.436;2022-10-22T00:33:11;6.20;;;2.60;;
49776;SDS011;35673;51.482;7.436;2022-10-22T00:35:36;5.95;;;2.50;;
49776;SDS011;35673;51.482;7.436;2022-10-22T00:38:02;7.75;;;3.05;;
49776;SDS011;35673;51.482;7.436;2022-10-22T00:40:28;7.13;;;3.13;;
49776;SDS011;35673;51.482;7.436;2022-10-22T00:42:54;5.15;;;3.00;;
49776;SDS011;35673;51.482;7.436;2022-10-22T00:47:51;6.60;;;2.27;;
49776;SDS011;35673;51.482;7.436;2022-10-22T00:50:34;3.15;;;1.83;;
49776;SDS011;35673;51.482;7.436;2022-10-22T00:53:08;3.42;;;2.33;;
49776;SDS011;35673;51.482;7.436;2022-10-22T00:55:38;4.53;;;1.80;;
49776;SDS011;35673;51.482;7.436;2022-10-22T00:58:05;5.85;;;2.10;;
49776;SDS011;35673;51.482;7.436;2022-10-22T01:00:31;5.47;;;1.73;;
49776;SDS011;35673;51.482;7.436;2022-10-22T01:02:57;5.47;;;2.58;;
49776;SDS011;35673;51.482;7.436;2022-10-22T01:05:25;5.13;;;1.80;;
49776;SDS011;35673;51.482;7.436;2022-10-22T01:07:53;7.33;;;2.40;;
49776;SDS011;35673;51.482;7.436;2022-10-22T01:10:37;4.80;;;2.58;;
49776;SDS011;35673;51.482;7.436;2022-10-22T01:18:56;4.78;;;1.63;;
49776;SDS011;35673;51.482;7.436;2022-10-22T01:21:43;5.82;;;1.67;;
49776;SDS011;35673;51.482;7.436;2022-10-22T01:29:38;6.50;;;2.10;;
49776;SDS011;35673;51.482;7.436;2022-10-22T01:32:10;5.32;;;1.98;;
49776;SDS011;35673;51.482;7.436;2022-10-22T01:34:39;4.85;;;2.08;;
49776;SDS011;35673;51.482;7.436;2022-10-22T01:37:07;4.47;;;1.75;;
49776;SDS011;35673;51.482;7.436;2022-10-22T01:39:36;9.90;;;2.97;;
49776;SDS011;35673;51.482;7.436;2022-10-22T01:42:04;6.50;;;1.98;;
49776;SDS011;35673;51.482;7.436;2022-10-22T01:44:31;6.35;;;2.10;;
49776;SDS011;35673;51.482;7.436;2022-10-22T01:47:02;4.63;;;2.15;;
49776;SDS011;35673;51.482;7.436;2022-10-22T01:52:47;6.80;;;2.05;;
49776;SDS011;35673;51.482;7.436;2022-10-22T02:00:23;5.90;;;1.98;;
49776;SDS011;35673;51.482;7.436;2022-10-22T02:02:59;5.22;;;1.95;;
49776;SDS011;35673;51.482;7.436;2022-10-22T02:05:31;4.18;;;2.28;;
49776;SDS011;35673;51.482;7.436;2022-10-22T02:08:09;7.68;;;2.20;;
49776;SDS011;35673;51.482;7.436;2022-10-22T02:10:45;6.25;;;2.35;;
49776;SDS011;35673;51.482;7.436;2022-10-22T02:13:17;6.47;;;2.00;;
49776;SDS011;35673;51.482;7.436;2022-10-22T02:15:46;8.77;;;2.35;;
49776;SDS011;35673;51.482;7.436;2022-10-22T02:18:14;4.70;;;2.05;;
49776;SDS011;35673;51.482;7.436;2022-10-22T02:20:41;9.68;;;2.53;;
49776;SDS011;35673;51.482;7.436;2022-10-22T02:23:07;4.07;;;2.10;;
49776;SDS011;35673;51.482;7.436;2022-10-22T02:25:34;5.15;;;2.53;;
49776;SDS011;35673;51.482;7.436;2022-10-22T02:28:10;9.07;;;2.35;;
49776;SDS011;35673;51.482;7.436;2022-10-22T02:30:53;5.10;;;2.72;;
49776;SDS011;35673;51.482;7.436;2022-10-22T02:35:51;7.43;;;2.60;;
49776;SDS011;35673;51.482;7.436;2022-10-22T02:38:19;4.88;;;2.58;;
49776;SDS011;35673;51.482;7.436;2022-10-22T02:40:46;6.43;;;2.55;;
49776;SDS011;35673;51.482;7.436;2022-10-22T02:43:12;7.15;;;2.63;;
49776;SDS011;35673;51.482;7.436;2022-10-22T02:45:38;4.80;;;2.30;;
49776;SDS011;35673;51.482;7.436;2022-10-22T02:48:03;7.22;;;2.28;;
49776;SDS011;35673;51.482;7.436;2022-10-22T02:50:29;6.43;;;2.80;;
49776;SDS011;35673;51.482;7.436;2022-10-22T02:52:55;5.55;;;2.50;;
49776;SDS011;35673;51.482;7.436;2022-10-22T02:55:20;9.30;;;2.42;;
49776;SDS011;35673;51.482;7.436;2022-10-22T02:57:46;6.10;;;2.40;;
49776;SDS011;35673;51.482;7.436;2022-10-22T03:00:12;6.35;;;2.55;;
49776;SDS011;35673;51.482;7.436;2022-10-22T03:02:38;4.40;;;1.85;;
49776;SDS011;35673;51.482;7.436;2022-10-22T03:05:03;3.38;;;2.25;;
49776;SDS011;35673;51.482;7.436;2022-10-22T03:07:30;8.10;;;2.58;;
49776;SDS011;35673;51.482;7.436;2022-10-22T03:09:55;4.72;;;2.33;;
49776;SDS011;35673;51.482;7.436;2022-10-22T03:12:21;3.50;;;2.17;;
49776;SDS011;35673;51.482;7.436;2022-10-22T03:14:46;7.97;;;2.30;;
49776;SDS011;35673;51.482;7.436;2022-10-22T03:17:12;6.47;;;2.38;;
49776;SDS011;35673;51.482;7.436;2022-10-22T03:19:38;8.32;;;2.58;;
49776;SDS011;35673;51.482;7.436;2022-10-22T03:22:08;8.93;;;2.78;;
49776;SDS011;35673;51.482;7.436;2022-10-22T03:24:43;4.03;;;2.55;;
49776;SDS011;35673;51.482;7.436;2022-10-22T03:27:11;12.73;;;3.30;;
49776;SDS011;35673;51.482;7.436;2022-10-22T03:29:40;7.20;;;3.50;;
49776;SDS011;35673;51.482;7.436;2022-10-22T03:32:06;7.88;;;2.75;;
49776;SDS011;35673;51.482;7.436;2022-10-22T03:34:32;9.93;;;3.28;;
49776;SDS011;35673;51.482;7.436;2022-10-22T03:36:58;16.10;;;3.50;;
49776;SDS011;35673;51.482;7.436;2022-10-22T03:39:25;9.35;;;2.60;;
49776;SDS011;35673;51.482;7.436;2022-10-22T03:41:52;3.30;;;2.60;;
49776;SDS011;35673;51.482;7.436;2022-10-22T03:44:18;10.95;;;2.42;;
49776;SDS011;35673;51.482;7.436;2022-10-22T03:46:45;6.85;;;2.20;;
49776;SDS011;35673;51.482;7.436;2022-10-22T03:49:11;5.07;;;2.47;;
49776;SDS011;35673;51.482;7.436;2022-10-22T03:51:36;9.00;;;2.67;;
49776;SDS011;35673;51.482;7.436;2022-10-22T03:54:02;5.88;;;2.72;;
49776;SDS011;35673;51.482;7.436;2022-10-22T03:56:28;7.18;;;3.08;;
49776;SDS011;35673;51.482;7.436;2022-10-22T03:58:57;9.05;;;2.50;;
49776;SDS011;35673;51.482;7.436;2022-10-22T04:01:24;5.47;;;2.42;;
49776;SDS011;35673;51.482;7.436;2022-10-22T04:03:51;5.05;;;2.55;;
49776;SDS011;35673;51.482;7.436;2022-10-22T04:06:16;6.03;;;2.90;;
49776;SDS011;35673;51.482;7.436;2022-10-22T04:08:43;4.93;;;2.50;;
49776;SDS011;35673;51.482;7.436;2022-10-22T04:11:09;5.53;;;2.90;;
49776;SDS011;35673;51.482;7.436;2022-10-22T04:13:35;8.65;;;2.97;;
49776;SDS011;35673;51.482;7.436;2022-10-22T04:16:08;5.45;;;2.65;;
49776;SDS011;35673;51.482;7.436;2022-10-22T04:18:35;6.18;;;2.70;;
49776;SDS011;35673;51.482;7.436;2022-10-22T04:21:01;9.10;;;3.05;;
49776;SDS011;35673;51.482;7.436;2022-10-22T04:23:27;4.22;;;2.83;;
49776;SDS011;35673;51.482;7.436;2022-10-22T04:25:56;5.65;;;2.53;;
49776;SDS011;35673;51.482;7.436;2022-10-22T04:28:26;12.13;;;3.17;;
49776;SDS011;35673;51.482;7.436;2022-10-22T04:30:52;7.43;;;3.38;;
49776;SDS011;35673;51.482;7.436;2022-10-22T04:33:18;5.88;;;3.10;;
49776;SDS011;35673;51.482;7.436;2022-10-22T04:35:43;7.20;;;3.05;;
49776;SDS011;35673;51.482;7.436;2022-10-22T04:38:09;9.25;;;3.10;;
49776;SDS011;35673;51.482;7.436;2022-10-22T04:40:35;5.65;;;2.63;;
49776;SDS011;35673;51.482;7.436;2022-10-22T04:43:00;8.25;;;3.63;;
49776;SDS011;35673;51.482;7.436;2022-10-22T04:45:26;8.40;;;3.10;;
49776;SDS011;35673;51.482;7.436;2022-10-22T04:47:51;7.93;;;2.95;;
49776;SDS011;35673;51.482;7.436;2022-10-22T04:50:17;5.28;;;2.78;;
49776;SDS011;35673;51.482;7.436;2022-10-22T04:52:42;6.82;;;2.80;;
49776;SDS011;35673;51.482;7.436;2022-10-22T04:55:08;8.55;;;3.25;;
49776;SDS011;35673;51.482;7.436;2022-10-22T04:57:33;8.98;;;2.60;;
49776;SDS011;35673;51.482;7.436;2022-10-22T04:59:59;5.38;;;3.08;;
49776;SDS011;35673;51.482;7.436;2022-10-22T05:02:25;7.95;;;3.00;;
49776;SDS011;35673;51.482;7.436;2022-10-22T05:04:50;4.70;;;3.05;;
49776;SDS011;35673;51.482;7.436;2022-10-22T05:07:16;5.57;;;3.25;;
49776;SDS011;35673;51.482;7.436;2022-10-22T05:09:42;8.80;;;3.45;;
49776;SDS011;35673;51.482;7.436;2022-10-22T05:12:07;9.43;;;3.72;;
49776;SDS011;35673;51.482;7.436;2022-10-22T05:14:33;8.18;;;3.72;;
49776;SDS011;35673;51.482;7.436;2022-10-22T05:16:58;7.40;;;2.55;;
49776;SDS011;35673;51.482;7.436;2022-10-22T05:19:25;7.15;;;3.15;;
49776;SDS011;35673;51.482;7.436;2022-10-22T05:21:52;6.80;;;3.50;;
49776;SDS011;35673;51.482;7.436;2022-10-22T05:24:19;6.63;;;3.08;;
49776;SDS011;35673;51.482;7.436;2022-10-22T05:26:47;8.65;;;3.20;;
49776;SDS011;35673;51.482;7.436;2022-10-22T05:29:16;6.07;;;3.40;;
49776;SDS011;35673;51.482;7.436;2022-10-22T05:31:42;9.23;;;2.88;;
49776;SDS011;35673;51.482;7.436;2022-10-22T05:34:08;11.27;;;3.38;;
49776;SDS011;35673;51.482;7.436;2022-10-22T05:36:33;9.05;;;3.15;;
49776;SDS011;35673;51.482;7.436;2022-10-22T05:38:59;4.65;;;3.38;;
49776;SDS011;35673;51.482;7.436;2022-10-22T05:41:25;7.32;;;3.22;;
49776;SDS011;35673;51.482;7.436;2022-10-22T05:43:53;9.60;;;3.30;;
49776;SDS011;35673;51.482;7.436;2022-10-22T05:46:20;6.15;;;3.13;;
49776;SDS011;35673;51.482;7.436;2022-10-22T05:51:15;6.22;;;3.65;;
49776;SDS011;35673;51.482;7.436;2022-10-22T05:53:41;5.03;;;3.42;;
49776;SDS011;35673;51.482;7.436;2022-10-22T05:56:10;6.50;;;3.25;;
49776;SDS011;35673;51.482;7.436;2022-10-22T05:58:37;6.47;;;3.38;;
49776;SDS011;35673;51.482;7.436;2022-10-22T06:01:03;6.53;;;3.50;;
49776;SDS011;35673;51.482;7.436;2022-10-22T06:03:31;6.68;;;3.90;;
49776;SDS011;35673;51.482;7.436;2022-10-22T06:06:05;6.32;;;3.10;;
49776;SDS011;35673;51.482;7.436;2022-10-22T06:08:39;6.60;;;3.60;;
49776;SDS011;35673;51.482;7.436;2022-10-22T06:11:04;9.32;;;3.38;;
49776;SDS011;35673;51.482;7.436;2022-10-22T06:13:30;6.25;;;3.67;;
49776;SDS011;35673;51.482;7.436;2022-10-22T06:15:56;6.03;;;4.15;;
49776;SDS011;35673;51.482;7.436;2022-10-22T06:18:22;8.63;;;4.28;;
49776;SDS011;35673;51.482;7.436;2022-10-22T06:20:48;6.47;;;3.55;;
49776;SDS011;35673;51.482;7.436;2022-10-22T06:23:13;4.93;;;3.35;;
49776;SDS011;35673;51.482;7.436;2022-10-22T06:25:40;6.95;;;4.50;;
49776;SDS011;35673;51.482;7.436;2022-10-22T06:28:07;7.47;;;4.43;;
49776;SDS011;35673;51.482;7.436;2022-10-22T06:30:33;11.23;;;4.43;;
49776;SDS011;35673;51.482;7.436;2022-10-22T06:32:58;9.27;;;4.63;;
49776;SDS011;35673;51.482;7.436;2022-10-22T06:35:24;12.25;;;4.35;;
49776;SDS011;35673;51.482;7.436;2022-10-22T06:37:49;8.45;;;4.00;;
49776;SDS011;35673;51.482;7.436;2022-10-22T06:40:15;7.78;;;3.95;;
49776;SDS011;35673;51.482;7.436;2022-10-22T06:42:42;8.88;;;5.00;;
49776;SDS011;35673;51.482;7.436;2022-10-22T06:45:08;6.30;;;4.03;;
49776;SDS011;35673;51.482;7.436;2022-10-22T06:47:34;9.32;;;4.45;;
49776;SDS011;35673;51.482;7.436;2022-10-22T06:50:00;8.38;;;4.72;;
49776;SDS011;35673;51.482;7.436;2022-10-22T06:52:25;7.43;;;5.00;;
49776;SDS011;35673;51.482;7.436;2022-10-22T06:54:51;11.05;;;4.93;;
49776;SDS011;35673;51.482;7.436;2022-10-22T06:57:16;7.40;;;4.80;;
49776;SDS011;35673;51.482;7.436;2022-10-22T06:59:42;8.13;;;4.47;;
49776;SDS011;35673;51.482;7.436;2022-10-22T07:02:08;5.43;;;3.83;;
49776;SDS011;35673;51.482;7.436;2022-10-22T07:04:34;10.32;;;4.88;;
49776;SDS011;35673;51.482;7.436;2022-10-22T07:07:00;10.95;;;4.25;;
49776;SDS011;35673;51.482;7.436;2022-10-22T07:09:25;6.50;;;3.72;;
49776;SDS011;35673;51.482;7.436;2022-10-22T07:11:51;7.80;;;3.97;;
49776;SDS011;35673;51.482;7.436;2022-10-22T07:14:16;7.85;;;3.75;;
49776;SDS011;35673;51.482;7.436;2022-10-22T07:16:42;5.70;;;3.78;;
49776;SDS011;35673;51.482;7.436;2022-10-22T07:19:09;8.32;;;4.00;;
49776;SDS011;35673;51.482;7.436;2022-10-22T07:21:35;8.20;;;3.38;;
49776;SDS011;35673;51.482;7.436;2022-10-22T07:24:01;7.38;;;3.30;;
49776;SDS011;35673;51.482;7.436;2022-10-22T07:26:27;6.65;;;2.95;;
49776;SDS011;35673;51.482;7.436;2022-10-22T07:28:54;5.35;;;2.58;;
49776;SDS011;35673;51.482;7.436;2022-10-22T07:31:21;4.63;;;2.67;;
49776;SDS011;35673;51.482;7.436;2022-10-22T07:33:47;10.65;;;2.97;;
49776;SDS011;35673;51.482;7.436;2022-10-22T07:36:13;8.55;;;3.70;;
49776;SDS011;35673;51.482;7.436;2022-10-22T07:38:42;6.13;;;2.42;;
49776;SDS011;35673;51.482;7.436;2022-10-22T07:41:09;6.22;;;3.10;;
49776;SDS011;35673;51.482;7.436;2022-10-22T07:43:35;10.10;;;3.95;;
49776;SDS011;35673;51.482;7.436;2022-10-22T07:46:00;8.43;;;2.40;;
49776;SDS011;35673;51.482;7.436;2022-10-22T07:48:26;7.60;;;2.97;;
49776;SDS011;35673;51.482;7.436;2022-10-22T07:50:52;10.48;;;4.78;;
49776;SDS011;35673;51.482;7.436;2022-10-22T07:53:18;5.70;;;2.55;;
49776;SDS011;35673;51.482;7.436;2022-10-22T07:55:48;10.80;;;3.55;;
49776;SDS011;35673;51.482;7.436;2022-10-22T07:58:15;6.13;;;2.70;;
49776;SDS011;35673;51.482;7.436;2022-10-22T08:00:44;5.97;;;2.20;;
49776;SDS011;35673;51.482;7.436;2022-10-22T08:03:11;7.45;;;2.67;;
49776;SDS011;35673;51.482;7.436;2022-10-22T08:05:37;6.93;;;3.30;;
49776;SDS011;35673;51.482;7.436;2022-10-22T08:08:07;5.78;;;2.30;;
49776;SDS011;35673;51.482;7.436;2022-10-22T08:10:34;7.22;;;2.50;;
49776;SDS011;35673;51.482;7.436;2022-10-22T08:13:00;5.25;;;2.20;;
49776;SDS011;35673;51.482;7.436;2022-10-22T08:15:26;6.88;;;2.17;;
49776;SDS011;35673;51.482;7.436;2022-10-22T08:17:51;3.90;;;1.83;;
49776;SDS011;35673;51.482;7.436;2022-10-22T08:20:17;5.13;;;2.65;;
49776;SDS011;35673;51.482;7.436;2022-10-22T08:22:44;6.88;;;2.05;;
49776;SDS011;35673;51.482;7.436;2022-10-22T08:25:09;9.18;;;2.88;;
49776;SDS011;35673;51.482;7.436;2022-10-22T08:27:36;6.57;;;2.53;;
49776;SDS011;35673;51.482;7.436;2022-10-22T08:30:02;3.65;;;1.85;;
49776;SDS011;35673;51.482;7.436;2022-10-22T08:32:29;3.10;;;1.55;;
49776;SDS011;35673;51.482;7.436;2022-10-22T08:34:55;2.67;;;1.42;;
49776;SDS011;35673;51.482;7.436;2022-10-22T08:37:21;6.90;;;2.22;;
49776;SDS011;35673;51.482;7.436;2022-10-22T08:39:46;8.55;;;1.83;;
49776;SDS011;35673;51.482;7.436;2022-10-22T08:50:41;8.65;;;1.77;;
49776;SDS011;35673;51.482;7.436;2022-10-22T08:53:14;6.25;;;2.63;;
49776;SDS011;35673;51.482;7.436;2022-10-22T08:55:42;6.82;;;2.00;;
49776;SDS011;35673;51.482;7.436;2022-10-22T08:58:15;8.38;;;2.13;;
49776;SDS011;35673;51.482;7.436;2022-10-22T09:01:08;4.97;;;1.75;;
49776;SDS011;35673;51.482;7.436;2022-10-22T09:06:28;2.40;;;1.65;;
49776;SDS011;35673;51.482;7.436;2022-10-22T09:08:56;7.25;;;1.95;;
49776;SDS011;35673;51.482;7.436;2022-10-22T09:13:59;11.90;;;2.50;;
49776;SDS011;35673;51.482;7.436;2022-10-22T09:16:50;6.65;;;2.00;;
49776;SDS011;35673;51.482;7.436;2022-10-22T09:19:45;10.40;;;2.78;;
49776;SDS011;35673;51.482;7.436;2022-10-22T09:25:08;4.57;;;2.25;;
49776;SDS011;35673;51.482;7.436;2022-10-22T09:27:37;6.45;;;2.55;;
49776;SDS011;35673;51.482;7.436;2022-10-22T09:30:02;7.88;;;2.63;;
49776;SDS011;35673;51.482;7.436;2022-10-22T09:32:28;6.30;;;2.08;;
49776;SDS011;35673;51.482;7.436;2022-10-22T09:34:55;5.70;;;2.33;;
49776;SDS011;35673;51.482;7.436;2022-10-22T09:37:24;7.78;;;2.15;;
49776;SDS011;35673;51.482;7.436;2022-10-22T09:39:51;4.35;;;2.08;;
49776;SDS011;35673;51.482;7.436;2022-10-22T09:42:18;5.47;;;2.47;;
49776;SDS011;35673;51.482;7.436;2022-10-22T09:44:52;6.07;;;2.17;;
49776;SDS011;35673;51.482;7.436;2022-10-22T09:52:33;7.40;;;1.80;;
49776;SDS011;35673;51.482;7.436;2022-10-22T09:55:00;6.30;;;2.10;;
49776;SDS011;35673;51.482;7.436;2022-10-22T09:57:27;5.10;;;2.13;;
49776;SDS011;35673;51.482;7.436;2022-10-22T09:59:53;7.30;;;2.00;;
49776;SDS011;35673;51.482;7.436;2022-10-22T10:02:22;8.05;;;1.90;;
49776;SDS011;35673;51.482;7.436;2022-10-22T10:04:56;8.02;;;1.80;;
49776;SDS011;35673;51.482;7.436;2022-10-22T10:07:26;8.43;;;2.10;;
49776;SDS011;35673;51.482;7.436;2022-10-22T10:09:55;6.85;;;2.33;;
49776;SDS011;35673;51.482;7.436;2022-10-22T10:15:28;6.50;;;1.58;;
49776;SDS011;35673;51.482;7.436;2022-10-22T10:21:08;6.28;;;1.52;;
49776;SDS011;35673;51.482;7.436;2022-10-22T10:32:05;3.47;;;1.33;;
49776;SDS011;35673;51.482;7.436;2022-10-22T10:34:56;7.25;;;2.17;;
49776;SDS011;35673;51.482;7.436;2022-10-22T10:38:09;8.40;;;1.80;;
49776;SDS011;35673;51.482;7.436;2022-10-22T10:40:45;6.72;;;2.17;;
49776;SDS011;35673;51.482;7.436;2022-10-22T10:46:16;14.38;;;2.13;;
49776;SDS011;35673;51.482;7.436;2022-10-22T10:49:08;6.32;;;1.70;;
49776;SDS011;35673;51.482;7.436;2022-10-22T11:00:11;8.65;;;1.65;;
49776;SDS011;35673;51.482;7.436;2022-10-22T11:02:51;3.40;;;1.33;;
49776;SDS011;35673;51.482;7.436;2022-10-22T11:05:58;5.85;;;1.52;;
49776;SDS011;35673;51.482;7.436;2022-10-22T11:08:27;7.45;;;0.88;;
49776;SDS011;35673;51.482;7.436;2022-10-22T11:14:10;10.38;;;1.23;;
49776;SDS011;35673;51.482;7.436;2022-10-22T11:16:54;3.13;;;1.08;;
49776;SDS011;35673;51.482;7.436;2022-10-22T11:22:34;4.68;;;1.20;;
49776;SDS011;35673;51.482;7.436;2022-10-22T11:25:17;5.28;;;1.75;;
49776;SDS011;35673;51.482;7.436;2022-10-22T11:27:56;10.20;;;1.25;;
49776;SDS011;35673;51.482;7.436;2022-10-22T11:30:33;5.80;;;1.45;;
49776;SDS011;35673;51.482;7.436;2022-10-22T11:33:04;5.32;;;1.42;;
49776;SDS011;35673;51.482;7.436;2022-10-22T11:35:41;2.78;;;1.13;;
49776;SDS011;35673;51.482;7.436;2022-10-22T11:38:13;5.85;;;1.63;;
49776;SDS011;35673;51.482;7.436;2022-10-22T11:41:00;6.63;;;1.58;;
49776;SDS011;35673;51.482;7.436;2022-10-22T11:43:35;4.88;;;2.03;;
49776;SDS011;35673;51.482;7.436;2022-10-22T11:48:41;7.15;;;0.98;;
49776;SDS011;35673;51.482;7.436;2022-10-22T11:51:35;6.00;;;1.35;;
49776;SDS011;35673;51.482;7.436;2022-10-22T11:54:48;6.20;;;1.30;;
49776;SDS011;35673;51.482;7.436;2022-10-22T12:04:47;6.28;;;1.10;;
49776;SDS011;35673;51.482;7.436;2022-10-22T12:07:30;5.40;;;1.48;;
49776;SDS011;35673;51.482;7.436;2022-10-22T12:09:58;4.07;;;0.80;;
49776;SDS011;35673;51.482;7.436;2022-10-22T12:12:24;5.97;;;0.88;;
49776;SDS011;35673;51.482;7.436;2022-10-22T12:17:21;10.93;;;0.85;;
49776;SDS011;35673;51.482;7.436;2022-10-22T12:22:35;2.17;;;0.50;;
49776;SDS011;35673;51.482;7.436;2022-10-22T12:25:08;3.60;;;0.68;;
49776;SDS011;35673;51.482;7.436;2022-10-22T12:27:52;5.25;;;0.85;;
49776;SDS011;35673;51.482;7.436;2022-10-22T12:30:22;4.53;;;1.20;;
49776;SDS011;35673;51.482;7.436;2022-10-22T12:32:56;3.92;;;0.80;;
49776;SDS011;35673;51.482;7.436;2022-10-22T12:35:25;5.88;;;0.80;;
49776;SDS011;35673;51.482;7.436;2022-10-22T12:38:03;5.90;;;1.13;;
49776;SDS011;35673;51.482;7.436;2022-10-22T12:40:38;3.92;;;1.25;;
49776;SDS011;35673;51.482;7.436;2022-10-22T12:43:12;5.00;;;0.90;;
49776;SDS011;35673;51.482;7.436;2022-10-22T12:45:41;5.22;;;1.33;;
49776;SDS011;35673;51.482;7.436;2022-10-22T12:48:31;2.45;;;0.93;;
49776;SDS011;35673;51.482;7.436;2022-10-22T12:50:59;2.00;;;0.50;;
49776;SDS011;35673;51.482;7.436;2022-10-22T12:56:02;3.35;;;0.60;;
49776;SDS011;35673;51.482;7.436;2022-10-22T12:58:36;5.57;;;0.90;;
49776;SDS011;35673;51.482;7.436;2022-10-22T13:01:04;3.63;;;0.70;;
49776;SDS011;35673;51.482;7.436;2022-10-22T13:03:41;4.28;;;0.77;;
49776;SDS011;35673;51.482;7.436;2022-10-22T13:06:24;5.43;;;0.93;;
49776;SDS011;35673;51.482;7.436;2022-10-22T13:11:38;6.38;;;0.98;;
49776;SDS011;35673;51.482;7.436;2022-10-22T13:14:17;5.32;;;1.27;;
49776;SDS011;35673;51.482;7.436;2022-10-22T13:22:53;2.35;;;0.60;;
49776;SDS011;35673;51.482;7.436;2022-10-22T13:25:28;2.88;;;0.73;;
49776;SDS011;35673;51.482;7.436;2022-10-22T13:30:24;6.85;;;0.77;;
49776;SDS011;35673;51.482;7.436;2022-10-22T13:32:56;2.60;;;0.73;;
49776;SDS011;35673;51.482;7.436;2022-10-22T13:35:35;6.93;;;1.95;;
49776;SDS011;35673;51.482;7.436;2022-10-22T13:38:02;3.35;;;0.90;;
49776;SDS011;35673;51.482;7.436;2022-10-22T13:40:37;4.97;;;0.60;;
49776;SDS011;35673;51.482;7.436;2022-10-22T13:43:03;3.85;;;1.05;;
49776;SDS011;35673;51.482;7.436;2022-10-22T13:45:28;6.88;;;1.25;;
49776;SDS011;35673;51.482;7.436;2022-10-22T13:47:54;4.80;;;0.90;;
49776;SDS011;35673;51.482;7.436;2022-10-22T13:50:20;3.15;;;0.85;;
49776;SDS011;35673;51.482;7.436;2022-10-22T13:52:49;2.17;;;0.63;;
49776;SDS011;35673;51.482;7.436;2022-10-22T13:55:21;4.55;;;0.73;;
49776;SDS011;35673;51.482;7.436;2022-10-22T13:57:49;3.38;;;0.60;;
49776;SDS011;35673;51.482;7.436;2022-10-22T14:00:17;5.22;;;0.95;;
49776;SDS011;35673;51.482;7.436;2022-10-22T14:02:44;4.00;;;0.90;;
49776;SDS011;35673;51.482;7.436;2022-10-22T14:05:11;2.47;;;0.57;;
49776;SDS011;35673;51.482;7.436;2022-10-22T14:07:38;6.88;;;1.02;;
49776;SDS011;35673;51.482;7.436;2022-10-22T14:12:46;3.25;;;0.63;;
49776;SDS011;35673;51.482;7.436;2022-10-22T14:15:13;4.60;;;0.88;;
49776;SDS011;35673;51.482;7.436;2022-10-22T14:17:44;4.88;;;0.60;;
49776;SDS011;35673;51.482;7.436;2022-10-22T14:20:23;3.08;;;0.60;;
49776;SDS011;35673;51.482;7.436;2022-10-22T14:22:52;2.47;;;0.47;;
49776;SDS011;35673;51.482;7.436;2022-10-22T14:25:19;3.10;;;0.60;;
49776;SDS011;35673;51.482;7.436;2022-10-22T14:27:46;5.65;;;0.70;;
49776;SDS011;35673;51.482;7.436;2022-10-22T14:30:13;3.47;;;1.52;;
49776;SDS011;35673;51.482;7.436;2022-10-22T14:32:40;5.93;;;0.90;;
49776;SDS011;35673;51.482;7.436;2022-10-22T14:35:08;4.45;;;0.93;;
49776;SDS011;35673;51.482;7.436;2022-10-22T14:37:38;2.80;;;0.70;;
49776;SDS011;35673;51.482;7.436;2022-10-22T14:40:04;4.00;;;0.73;;
49776;SDS011;35673;51.482;7.436;2022-10-22T14:42:31;3.90;;;0.60;;
49776;SDS011;35673;51.482;7.436;2022-10-22T14:45:04;2.17;;;0.98;;
49776;SDS011;35673;51.482;7.436;2022-10-22T14:47:31;6.63;;;0.57;;
49776;SDS011;35673;51.482;7.436;2022-10-22T14:49:56;3.80;;;1.00;;
49776;SDS011;35673;51.482;7.436;2022-10-22T14:52:22;4.38;;;1.10;;
49776;SDS011;35673;51.482;7.436;2022-10-22T14:54:47;2.42;;;0.70;;
49776;SDS011;35673;51.482;7.436;2022-10-22T14:57:13;4.82;;;1.00;;
49776;SDS011;35673;51.482;7.436;2022-10-22T14:59:40;3.53;;;0.70;;
49776;SDS011;35673;51.482;7.436;2022-10-22T15:02:08;4.60;;;0.55;;
49776;SDS011;35673;51.482;7.436;2022-10-22T15:04:37;2.95;;;0.90;;
49776;SDS011;35673;51.482;7.436;2022-10-22T15:07:03;4.45;;;1.23;;
49776;SDS011;35673;51.482;7.436;2022-10-22T15:09:28;9.57;;;1.00;;
49776;SDS011;35673;51.482;7.436;2022-10-22T15:11:54;5.55;;;0.80;;
49776;SDS011;35673;51.482;7.436;2022-10-22T15:14:20;4.97;;;1.00;;
49776;SDS011;35673;51.482;7.436;2022-10-22T15:16:45;3.17;;;0.65;;
49776;SDS011;35673;51.482;7.436;2022-10-22T15:19:11;2.47;;;0.70;;
49776;SDS011;35673;51.482;7.436;2022-10-22T15:21:36;3.42;;;0.85;;
49776;SDS011;35673;51.482;7.436;2022-10-22T15:24:02;5.07;;;1.15;;
49776;SDS011;35673;51.482;7.436;2022-10-22T15:26:28;3.75;;;0.85;;
49776;SDS011;35673;51.482;7.436;2022-10-22T15:28:54;2.65;;;1.35;;
49776;SDS011;35673;51.482;7.436;2022-10-22T15:31:39;3.08;;;0.90;;
49776;SDS011;35673;51.482;7.436;2022-10-22T15:34:07;6.35;;;1.10;;
49776;SDS011;35673;51.482;7.436;2022-10-22T15:36:32;6.03;;;1.20;;
49776;SDS011;35673;51.482;7.436;2022-10-22T15:38:58;4.60;;;0.85;;
49776;SDS011;35673;51.482;7.436;2022-10-22T15:41:23;4.53;;;0.82;;
49776;SDS011;35673;51.482;7.436;2022-10-22T15:43:49;4.60;;;1.00;;
49776;SDS011;35673;51.482;7.436;2022-10-22T15:46:16;3.22;;;1.48;;
49776;SDS011;35673;51.482;7.436;2022-10-22T15:48:43;3.30;;;0.95;;
49776;SDS011;35673;51.482;7.436;2022-10-22T15:51:16;3.67;;;1.48;;
49776;SDS011;35673;51.482;7.436;2022-10-22T15:53:43;2.55;;;1.00;;
49776;SDS011;35673;51.482;7.436;2022-10-22T15:56:14;6.18;;;2.10;;
49776;SDS011;35673;51.482;7.436;2022-10-22T15:58:39;4.07;;;1.38;;
49776;SDS011;35673;51.482;7.436;2022-10-22T16:01:06;1.92;;;0.90;;
49776;SDS011;35673;51.482;7.436;2022-10-22T16:03:33;2.95;;;1.02;;
49776;SDS011;35673;51.482;7.436;2022-10-22T16:05:59;3.03;;;1.30;;
49776;SDS011;35673;51.482;7.436;2022-10-22T16:08:25;3.67;;;1.10;;
49776;SDS011;35673;51.482;7.436;2022-10-22T16:10:52;9.25;;;2.88;;
49776;SDS011;35673;51.482;7.436;2022-10-22T16:13:18;5.20;;;0.80;;
49776;SDS011;35673;51.482;7.436;2022-10-22T16:15:48;4.68;;;1.40;;
49776;SDS011;35673;51.482;7.436;2022-10-22T16:18:15;6.80;;;1.98;;
49776;SDS011;35673;51.482;7.436;2022-10-22T16:20:41;5.38;;;2.00;;
49776;SDS011;35673;51.482;7.436;2022-10-22T16:23:07;5.03;;;1.77;;
49776;SDS011;35673;51.482;7.436;2022-10-22T16:25:36;5.43;;;1.35;;
49776;SDS011;35673;51.482;7.436;2022-10-22T16:28:02;5.10;;;1.73;;
49776;SDS011;35673;51.482;7.436;2022-10-22T16:30:28;3.72;;;1.58;;
49776;SDS011;35673;51.482;7.436;2022-10-22T16:32:56;5.55;;;1.70;;
49776;SDS011;35673;51.482;7.436;2022-10-22T16:35:21;4.57;;;1.88;;
49776;SDS011;35673;51.482;7.436;2022-10-22T16:37:47;2.90;;;1.65;;
49776;SDS011;35673;51.482;7.436;2022-10-22T16:40:12;5.97;;;2.25;;
49776;SDS011;35673;51.482;7.436;2022-10-22T16:42:38;7.88;;;2.05;;
49776;SDS011;35673;51.482;7.436;2022-10-22T16:45:04;5.50;;;2.17;;
49776;SDS011;35673;51.482;7.436;2022-10-22T16:47:30;6.10;;;2.08;;
49776;SDS011;35673;51.482;7.436;2022-10-22T16:49:56;5.15;;;2.58;;
49776;SDS011;35673;51.482;7.436;2022-10-22T16:52:24;8.07;;;2.72;;